»·PEaware :: N221XG KSNA-KWHP

N221XG :: KSNA-KWHP

FLIGHT INFORMATION

Flight Status: Arrived
Operator: Privately registered:
United States
More flights under this callsign
Pilot: Ryan L. (9775)
Aircraft: BEECH AIRCRAFT SUPER KING AIR 350
(B350)
More flights by this aircraft type
Origin: KSNA John Wayne-Orange Co
United States
Destination: KWHP Whiteman
United States
More flights between these airports :: More routes between these airports
Route: +MUSEL8 SLI V23 LAX LAX320 CANOG
File this flight plan on PilotEdge
Remarks:
Altitude:
(Current/Filed)
6,000ft
Speed:
(Current/Filed)
220kts
Departed: 04-Jul-19 07:53 AM
Arrived: 04-Jul-19 08:22 AM
Distance/Time
Traveled:
44nm/0:29
Distance/Time
To Go:
Arrived

Flight Plot

Page will automatically refresh every two minutes.

Flight plan parsing failed; only flown route is shown


Map Options




Map Legend


Flown Route
Filed Route
Departure Airport
Arrival Airport
Navaid (VOR, NDB)
Fix

Horizontal Profiles

Position Reports

Time Latitude Longitude Heading Altitude Ground
Speed
04-Jul-19 07:21 33.671596 -117.867559 208 61ft 0kts
04-Jul-19 07:22 33.671596 -117.867559 208 61ft 0kts
04-Jul-19 07:23 33.671596 -117.867559 208 61ft 0kts
04-Jul-19 07:31 33.671596 -117.867559 208 61ft 0kts
04-Jul-19 07:32 33.671596 -117.867559 208 61ft 0kts
04-Jul-19 07:34 33.671596 -117.867559 208 61ft 0kts
04-Jul-19 07:35 33.671596 -117.867559 208 61ft 0kts
04-Jul-19 07:36 33.671596 -117.867559 208 61ft 0kts
04-Jul-19 07:37 33.671596 -117.867559 208 61ft 0kts
04-Jul-19 07:38 33.671596 -117.867559 208 61ft 0kts
04-Jul-19 07:39 33.671596 -117.867559 208 61ft 0kts
04-Jul-19 07:40 33.671596 -117.867559 208 61ft 0kts
04-Jul-19 07:41 33.671596 -117.867559 208 61ft 0kts
04-Jul-19 07:42 33.671596 -117.867559 208 61ft 0kts
04-Jul-19 07:43 33.671596 -117.867559 208 61ft 0kts
04-Jul-19 07:44 33.671596 -117.867559 208 61ft 0kts
04-Jul-19 07:45 33.671482 -117.867731 271 61ft 4kts
04-Jul-19 07:46 33.671500 -117.867972 274 61ft 0kts
04-Jul-19 07:47 33.672367 -117.867978 27 61ft 9kts
04-Jul-19 07:48 33.674880 -117.866605 30 61ft 10kts
04-Jul-19 07:49 33.677638 -117.864857 27 61ft 13kts
04-Jul-19 07:50 33.680155 -117.864062 298 61ft 7kts
04-Jul-19 07:51 33.680524 -117.864873 296 61ft 4kts
04-Jul-19 07:52 33.666489 -117.874531 209 301ft 128kts
04-Jul-19 07:53 33.632110 -117.892033 189 2004ft 140kts
04-Jul-19 07:54 33.594558 -117.898792 188 4103ft 147kts
04-Jul-19 07:55 33.591165 -117.936226 306 6484ft 126kts
04-Jul-19 07:56 33.618278 -117.977565 310 6686ft 201kts
04-Jul-19 07:57 33.656589 -118.032517 309 5988ft 210kts
04-Jul-19 07:59 33.692869 -118.084675 309 6005ft 208kts
04-Jul-19 08:00 33.731587 -118.140340 309 6003ft 225kts
04-Jul-19 08:01 33.772515 -118.199285 309 5998ft 230kts
04-Jul-19 08:02 33.813566 -118.258530 309 5998ft 230kts
04-Jul-19 08:03 33.854535 -118.317757 309 5998ft 230kts
04-Jul-19 08:04 33.895514 -118.377091 309 5999ft 229kts
04-Jul-19 08:05 33.937552 -118.435164 328 5974ft 230kts
04-Jul-19 08:06 33.995766 -118.466452 334 5997ft 229kts
04-Jul-19 08:07 34.053129 -118.497795 334 5868ft 215kts
04-Jul-19 08:08 34.107385 -118.527697 335 4339ft 213kts
04-Jul-19 08:09 34.156383 -118.554731 335 3925ft 164kts
04-Jul-19 08:10 34.198599 -118.571582 346 3963ft 165kts
04-Jul-19 08:11 34.234617 -118.603431 276 3962ft 166kts
04-Jul-19 08:12 34.231676 -118.658096 266 3952ft 165kts
04-Jul-19 08:13 34.201516 -118.661246 94 4052ft 169kts
04-Jul-19 08:14 34.225625 -118.615171 70 4176ft 166kts
04-Jul-19 08:15 34.224001 -118.558568 92 3501ft 170kts
04-Jul-19 08:16 34.223593 -118.505194 89 3159ft 154kts
04-Jul-19 08:17 34.241759 -118.459510 57 2148ft 153kts
04-Jul-19 08:18 34.256822 -118.416213 65 1924ft 137kts
04-Jul-19 08:19 34.286158 -118.421494 312 1930ft 132kts
04-Jul-19 08:19 34.289596 -118.445546 161 1515ft 117kts
04-Jul-19 08:21 34.261709 -118.415991 138 1006ft 101kts
04-Jul-19 08:21 34.255315 -118.409066 78 1005ft 7kts

Navigation Log

Ident Type
Flight plan parsing failed, navigation log unavailable